This is the latest recevied weather packets stored in our database for station/object DM1RG-6. If no packets are shown the sender has not sent any weather packets the latest 10 day(s).
| Time | Temp. | Humidity | Pressure | Rain* | Wind** | Luminosity | Snow |
|---|---|---|---|---|---|---|---|
| 1777626003 | 19.44° C | 44% | 1029.1 hPa | 0 mm | - | - | - |
| 1777625643 | 18.33° C | 44% | 1029 hPa | 0 mm | - | - | - |
| 1777625283 | 17.78° C | 45% | 1029.3 hPa | 0 mm | - | - | - |
| 1777624923 | 17.78° C | 47% | 1029 hPa | 0 mm | - | - | - |
| 1777624563 | 18.33° C | 45% | 1029.1 hPa | 0 mm | - | - | - |
| 1777624203 | 17.78° C | 47% | 1029.1 hPa | 0 mm | - | - | - |
| 1777623843 | 17.78° C | 46% | 1029.2 hPa | 0 mm | - | - | - |
| 1777623483 | 18.33° C | 44% | 1029.3 hPa | 0 mm | - | - | - |
| 1777623123 | 17.78° C | 47% | 1029.5 hPa | 0 mm | - | - | - |
| 1777622763 | 18.89° C | 45% | 1029.1 hPa | 0 mm | - | - | - |
| 1777622404 | 17.22° C | 47% | 1029.2 hPa | 0 mm | - | - | - |
| 1777622043 | 17.22° C | 46% | 1029.3 hPa | 0 mm | - | - | - |
| 1777621683 | 16.67° C | 48% | 1029.1 hPa | 0 mm | - | - | - |
| 1777621323 | 16.67° C | 50% | 1029.4 hPa | 0 mm | - | - | - |
| 1777620963 | 16.67° C | 49% | 1029.2 hPa | 0 mm | - | - | - |
| 1777620603 | 17.22° C | 49% | 1029.3 hPa | 0 mm | - | - | - |
| 1777620243 | 15.56° C | 52% | 1029.1 hPa | 0 mm | - | - | - |
| 1777619883 | 15° C | 53% | 1029.4 hPa | 0 mm | - | - | - |
| 1777619523 | 15.56° C | 52% | 1029.3 hPa | 0 mm | - | - | - |
| 1777619163 | 15.56° C | 53% | 1029.4 hPa | 0 mm | - | - | - |
| 1777618803 | 15.56° C | 55% | 1029.3 hPa | 0 mm | - | - | - |
| 1777618443 | 15° C | 56% | 1029.4 hPa | 0 mm | - | - | - |
| 1777618083 | 13.89° C | 59% | 1029.3 hPa | 0 mm | - | - | - |
| 1777617723 | 13.89° C | 61% | 1029.1 hPa | 0 mm | - | - | - |
| 1777617363 | 13.89° C | 59% | 1029.3 hPa | 0 mm | - | - | - |
* Rain latest hour (hover to see other rain measurements)
** Current wind speed in m/s (hover to see current wind gust speed)